Ashland, Wisconsin
Current Conditions -  °F | °C
As of 7:53 PM on Friday 28 Nov 2014 (Local Time) from KASX Reporting Station
Overcast Overcast  
Wind Chill: 18°   Ceiling: 4500
Heat Index: 18°   Visibility: 10mi
Dew Point: 12°   Wind: 3mph
Humidity: 78%   Direction: 130°SE
Pressure: 29.88"   Gusts: NA
Location:  46.59°N, 90.89°W
Report Text: KASX 290153Z AUTO 13003KT 10SM OVC045 M08/M11 A2988 RMK AO2 SLP137 T10781111
Loading
Personal Weather Stations






























Interactive Weather Map New forecast layout! Learn more

10-Day Weather Forecast

Advertisements
Track Severe Weather on mobile